sensor_id;sensor_type;location;lat;lon;timestamp;P1;durP1;ratioP1;P2;durP2;ratioP2
4921;SDS011;16625;53.624;10.106;2022-09-17T00:00:18;22.70;;;4.97;;
4921;SDS011;16625;53.624;10.106;2022-09-17T00:02:48;17.87;;;4.00;;
4921;SDS011;16625;53.624;10.106;2022-09-17T00:05:19;33.40;;;5.50;;
4921;SDS011;16625;53.624;10.106;2022-09-17T00:07:46;39.57;;;5.60;;
4921;SDS011;16625;53.624;10.106;2022-09-17T00:10:13;40.67;;;4.70;;
4921;SDS011;16625;53.624;10.106;2022-09-17T00:12:40;18.00;;;5.07;;
4921;SDS011;16625;53.624;10.106;2022-09-17T00:15:07;18.90;;;4.80;;
4921;SDS011;16625;53.624;10.106;2022-09-17T00:17:36;38.77;;;4.73;;
4921;SDS011;16625;53.624;10.106;2022-09-17T00:20:03;31.40;;;4.63;;
4921;SDS011;16625;53.624;10.106;2022-09-17T00:22:33;33.43;;;5.57;;
4921;SDS011;16625;53.624;10.106;2022-09-17T00:25:00;23.00;;;5.50;;
4921;SDS011;16625;53.624;10.106;2022-09-17T00:27:26;24.37;;;4.67;;
4921;SDS011;16625;53.624;10.106;2022-09-17T00:29:53;28.33;;;4.80;;
4921;SDS011;16625;53.624;10.106;2022-09-17T00:32:20;28.07;;;4.87;;
4921;SDS011;16625;53.624;10.106;2022-09-17T00:34:49;32.27;;;3.87;;
4921;SDS011;16625;53.624;10.106;2022-09-17T00:37:17;19.53;;;5.23;;
4921;SDS011;16625;53.624;10.106;2022-09-17T00:39:44;20.80;;;4.30;;
4921;SDS011;16625;53.624;10.106;2022-09-17T00:42:11;26.63;;;4.40;;
4921;SDS011;16625;53.624;10.106;2022-09-17T00:44:43;29.57;;;5.97;;
4921;SDS011;16625;53.624;10.106;2022-09-17T00:47:15;33.30;;;4.27;;
4921;SDS011;16625;53.624;10.106;2022-09-17T00:50:07;14.60;;;3.90;;
4921;SDS011;16625;53.624;10.106;2022-09-17T00:52:39;22.47;;;4.10;;
4921;SDS011;16625;53.624;10.106;2022-09-17T00:55:10;25.77;;;4.70;;
4921;SDS011;16625;53.624;10.106;2022-09-17T00:57:39;17.50;;;4.30;;
4921;SDS011;16625;53.624;10.106;2022-09-17T01:00:08;26.73;;;5.17;;
4921;SDS011;16625;53.624;10.106;2022-09-17T01:02:37;50.93;;;5.30;;
4921;SDS011;16625;53.624;10.106;2022-09-17T01:05:06;34.30;;;4.20;;
4921;SDS011;16625;53.624;10.106;2022-09-17T01:07:39;18.60;;;3.87;;
4921;SDS011;16625;53.624;10.106;2022-09-17T01:10:26;28.53;;;3.70;;
4921;SDS011;16625;53.624;10.106;2022-09-17T01:13:06;22.73;;;4.97;;
4921;SDS011;16625;53.624;10.106;2022-09-17T01:15:42;24.63;;;4.50;;
4921;SDS011;16625;53.624;10.106;2022-09-17T01:18:18;15.17;;;3.60;;
4921;SDS011;16625;53.624;10.106;2022-09-17T01:24:16;24.67;;;4.47;;
4921;SDS011;16625;53.624;10.106;2022-09-17T01:30:18;17.73;;;3.77;;
4921;SDS011;16625;53.624;10.106;2022-09-17T01:32:56;25.20;;;5.13;;
4921;SDS011;16625;53.624;10.106;2022-09-17T01:35:28;27.13;;;4.07;;
4921;SDS011;16625;53.624;10.106;2022-09-17T01:38:04;21.30;;;3.37;;
4921;SDS011;16625;53.624;10.106;2022-09-17T01:40:38;24.40;;;6.20;;
4921;SDS011;16625;53.624;10.106;2022-09-17T01:43:11;40.47;;;7.20;;
4921;SDS011;16625;53.624;10.106;2022-09-17T01:45:48;31.23;;;4.63;;
4921;SDS011;16625;53.624;10.106;2022-09-17T01:48:17;22.20;;;4.70;;
4921;SDS011;16625;53.624;10.106;2022-09-17T01:50:47;17.30;;;3.43;;
4921;SDS011;16625;53.624;10.106;2022-09-17T01:53:18;27.30;;;4.63;;
4921;SDS011;16625;53.624;10.106;2022-09-17T01:55:50;24.00;;;3.67;;
4921;SDS011;16625;53.624;10.106;2022-09-17T01:58:20;17.00;;;4.20;;
4921;SDS011;16625;53.624;10.106;2022-09-17T02:00:53;12.73;;;3.17;;
4921;SDS011;16625;53.624;10.106;2022-09-17T02:03:23;23.90;;;3.43;;
4921;SDS011;16625;53.624;10.106;2022-09-17T02:05:55;20.80;;;3.60;;
4921;SDS011;16625;53.624;10.106;2022-09-17T02:08:25;17.90;;;4.13;;
4921;SDS011;16625;53.624;10.106;2022-09-17T02:10:57;14.50;;;3.53;;
4921;SDS011;16625;53.624;10.106;2022-09-17T02:13:29;23.83;;;3.90;;
4921;SDS011;16625;53.624;10.106;2022-09-17T02:16:03;12.97;;;3.70;;
4921;SDS011;16625;53.624;10.106;2022-09-17T02:18:38;10.80;;;4.23;;
4921;SDS011;16625;53.624;10.106;2022-09-17T02:21:10;30.40;;;4.57;;
4921;SDS011;16625;53.624;10.106;2022-09-17T02:23:42;18.43;;;4.20;;
4921;SDS011;16625;53.624;10.106;2022-09-17T02:26:14;21.50;;;5.23;;
4921;SDS011;16625;53.624;10.106;2022-09-17T02:28:45;14.83;;;4.17;;
4921;SDS011;16625;53.624;10.106;2022-09-17T02:31:17;19.87;;;3.40;;
4921;SDS011;16625;53.624;10.106;2022-09-17T02:33:46;14.63;;;3.90;;
4921;SDS011;16625;53.624;10.106;2022-09-17T02:36:15;21.23;;;3.33;;
4921;SDS011;16625;53.624;10.106;2022-09-17T02:38:43;19.10;;;4.00;;
4921;SDS011;16625;53.624;10.106;2022-09-17T02:41:13;23.60;;;4.00;;
4921;SDS011;16625;53.624;10.106;2022-09-17T02:43:46;20.47;;;3.57;;
4921;SDS011;16625;53.624;10.106;2022-09-17T02:46:26;18.07;;;3.80;;
4921;SDS011;16625;53.624;10.106;2022-09-17T02:49:09;21.27;;;4.10;;
4921;SDS011;16625;53.624;10.106;2022-09-17T02:51:51;22.17;;;4.47;;
4921;SDS011;16625;53.624;10.106;2022-09-17T02:54:26;30.93;;;3.53;;
4921;SDS011;16625;53.624;10.106;2022-09-17T02:56:57;25.03;;;3.90;;
4921;SDS011;16625;53.624;10.106;2022-09-17T02:59:30;24.43;;;5.20;;
4921;SDS011;16625;53.624;10.106;2022-09-17T03:02:08;18.40;;;3.13;;
4921;SDS011;16625;53.624;10.106;2022-09-17T03:04:41;21.27;;;3.93;;
4921;SDS011;16625;53.624;10.106;2022-09-17T03:07:11;17.20;;;3.97;;
4921;SDS011;16625;53.624;10.106;2022-09-17T03:09:39;18.67;;;4.17;;
4921;SDS011;16625;53.624;10.106;2022-09-17T03:12:07;21.60;;;4.10;;
4921;SDS011;16625;53.624;10.106;2022-09-17T03:14:34;22.50;;;3.80;;
4921;SDS011;16625;53.624;10.106;2022-09-17T03:17:01;28.53;;;4.47;;
4921;SDS011;16625;53.624;10.106;2022-09-17T03:19:30;21.43;;;4.27;;
4921;SDS011;16625;53.624;10.106;2022-09-17T03:21:57;21.37;;;3.77;;
4921;SDS011;16625;53.624;10.106;2022-09-17T03:24:23;25.93;;;5.40;;
4921;SDS011;16625;53.624;10.106;2022-09-17T03:26:51;9.07;;;2.67;;
4921;SDS011;16625;53.624;10.106;2022-09-17T03:29:17;11.40;;;2.37;;
4921;SDS011;16625;53.624;10.106;2022-09-17T03:31:44;17.37;;;2.77;;
4921;SDS011;16625;53.624;10.106;2022-09-17T03:34:11;23.40;;;3.93;;
4921;SDS011;16625;53.624;10.106;2022-09-17T03:36:39;15.00;;;4.87;;
4921;SDS011;16625;53.624;10.106;2022-09-17T03:39:06;22.57;;;3.27;;
4921;SDS011;16625;53.624;10.106;2022-09-17T03:41:33;13.27;;;2.87;;
4921;SDS011;16625;53.624;10.106;2022-09-17T03:44:00;12.73;;;3.10;;
4921;SDS011;16625;53.624;10.106;2022-09-17T03:46:27;31.63;;;3.37;;
4921;SDS011;16625;53.624;10.106;2022-09-17T03:48:54;21.40;;;3.50;;
4921;SDS011;16625;53.624;10.106;2022-09-17T03:51:20;18.70;;;3.07;;
4921;SDS011;16625;53.624;10.106;2022-09-17T03:53:48;18.23;;;3.07;;
4921;SDS011;16625;53.624;10.106;2022-09-17T03:56:15;14.10;;;3.70;;
4921;SDS011;16625;53.624;10.106;2022-09-17T03:58:42;13.73;;;3.07;;
4921;SDS011;16625;53.624;10.106;2022-09-17T04:01:09;12.53;;;3.00;;
4921;SDS011;16625;53.624;10.106;2022-09-17T04:03:36;14.90;;;5.53;;
4921;SDS011;16625;53.624;10.106;2022-09-17T04:06:03;10.57;;;3.30;;
4921;SDS011;16625;53.624;10.106;2022-09-17T04:08:29;17.93;;;4.50;;
4921;SDS011;16625;53.624;10.106;2022-09-17T04:10:58;17.63;;;3.40;;
4921;SDS011;16625;53.624;10.106;2022-09-17T04:13:24;15.27;;;3.57;;
4921;SDS011;16625;53.624;10.106;2022-09-17T04:15:51;23.97;;;3.67;;
4921;SDS011;16625;53.624;10.106;2022-09-17T04:18:18;11.93;;;2.77;;
4921;SDS011;16625;53.624;10.106;2022-09-17T04:20:45;22.00;;;4.33;;
4921;SDS011;16625;53.624;10.106;2022-09-17T04:23:11;23.47;;;3.93;;
4921;SDS011;16625;53.624;10.106;2022-09-17T04:25:38;18.47;;;4.83;;
4921;SDS011;16625;53.624;10.106;2022-09-17T04:28:06;6.77;;;2.87;;
4921;SDS011;16625;53.624;10.106;2022-09-17T04:30:34;19.80;;;3.40;;
4921;SDS011;16625;53.624;10.106;2022-09-17T04:33:01;6.40;;;2.70;;
4921;SDS011;16625;53.624;10.106;2022-09-17T04:35:28;30.10;;;3.67;;
4921;SDS011;16625;53.624;10.106;2022-09-17T04:37:55;20.07;;;4.00;;
4921;SDS011;16625;53.624;10.106;2022-09-17T04:40:23;17.47;;;3.70;;
4921;SDS011;16625;53.624;10.106;2022-09-17T04:42:51;12.20;;;2.80;;
4921;SDS011;16625;53.624;10.106;2022-09-17T04:45:20;30.10;;;4.33;;
4921;SDS011;16625;53.624;10.106;2022-09-17T04:47:47;14.63;;;3.37;;
4921;SDS011;16625;53.624;10.106;2022-09-17T04:50:15;24.20;;;3.20;;
4921;SDS011;16625;53.624;10.106;2022-09-17T04:52:42;17.50;;;4.50;;
4921;SDS011;16625;53.624;10.106;2022-09-17T04:55:09;23.83;;;3.60;;
4921;SDS011;16625;53.624;10.106;2022-09-17T04:57:37;17.60;;;3.90;;
4921;SDS011;16625;53.624;10.106;2022-09-17T05:00:04;24.70;;;3.00;;
4921;SDS011;16625;53.624;10.106;2022-09-17T05:02:35;15.80;;;2.87;;
4921;SDS011;16625;53.624;10.106;2022-09-17T05:05:01;18.27;;;3.63;;
4921;SDS011;16625;53.624;10.106;2022-09-17T05:07:28;16.40;;;3.07;;
4921;SDS011;16625;53.624;10.106;2022-09-17T05:09:55;18.47;;;3.50;;
4921;SDS011;16625;53.624;10.106;2022-09-17T05:12:22;18.03;;;2.67;;
4921;SDS011;16625;53.624;10.106;2022-09-17T05:14:49;9.93;;;3.00;;
4921;SDS011;16625;53.624;10.106;2022-09-17T05:17:15;12.70;;;3.00;;
4921;SDS011;16625;53.624;10.106;2022-09-17T05:19:43;22.10;;;3.70;;
4921;SDS011;16625;53.624;10.106;2022-09-17T05:22:10;14.20;;;3.57;;
4921;SDS011;16625;53.624;10.106;2022-09-17T05:24:37;15.43;;;3.40;;
4921;SDS011;16625;53.624;10.106;2022-09-17T05:27:04;15.10;;;3.47;;
4921;SDS011;16625;53.624;10.106;2022-09-17T05:29:31;13.90;;;3.20;;
4921;SDS011;16625;53.624;10.106;2022-09-17T05:31:57;20.20;;;3.23;;
4921;SDS011;16625;53.624;10.106;2022-09-17T05:34:25;19.73;;;3.87;;
4921;SDS011;16625;53.624;10.106;2022-09-17T05:36:53;14.50;;;3.10;;
4921;SDS011;16625;53.624;10.106;2022-09-17T05:39:20;12.93;;;3.30;;
4921;SDS011;16625;53.624;10.106;2022-09-17T05:41:49;15.90;;;2.73;;
4921;SDS011;16625;53.624;10.106;2022-09-17T05:44:16;15.40;;;3.53;;
4921;SDS011;16625;53.624;10.106;2022-09-17T05:46:43;15.57;;;3.47;;
4921;SDS011;16625;53.624;10.106;2022-09-17T05:49:10;9.23;;;2.23;;
4921;SDS011;16625;53.624;10.106;2022-09-17T05:51:38;18.03;;;3.47;;
4921;SDS011;16625;53.624;10.106;2022-09-17T05:54:06;14.30;;;3.60;;
4921;SDS011;16625;53.624;10.106;2022-09-17T05:56:33;12.83;;;2.93;;
4921;SDS011;16625;53.624;10.106;2022-09-17T05:59:00;8.20;;;3.10;;
4921;SDS011;16625;53.624;10.106;2022-09-17T06:01:27;18.27;;;3.33;;
4921;SDS011;16625;53.624;10.106;2022-09-17T06:03:54;14.00;;;3.00;;
4921;SDS011;16625;53.624;10.106;2022-09-17T06:06:21;13.43;;;2.57;;
4921;SDS011;16625;53.624;10.106;2022-09-17T06:08:48;14.27;;;3.43;;
4921;SDS011;16625;53.624;10.106;2022-09-17T06:11:16;10.10;;;2.70;;
4921;SDS011;16625;53.624;10.106;2022-09-17T06:13:43;15.93;;;4.60;;
4921;SDS011;16625;53.624;10.106;2022-09-17T06:16:09;9.70;;;3.03;;
4921;SDS011;16625;53.624;10.106;2022-09-17T06:18:36;13.30;;;3.33;;
4921;SDS011;16625;53.624;10.106;2022-09-17T06:21:03;18.03;;;2.07;;
4921;SDS011;16625;53.624;10.106;2022-09-17T06:23:30;17.37;;;4.43;;
4921;SDS011;16625;53.624;10.106;2022-09-17T06:25:59;11.77;;;3.30;;
4921;SDS011;16625;53.624;10.106;2022-09-17T06:28:28;19.53;;;4.20;;
4921;SDS011;16625;53.624;10.106;2022-09-17T06:30:58;9.57;;;2.47;;
4921;SDS011;16625;53.624;10.106;2022-09-17T06:33:25;16.27;;;4.30;;
4921;SDS011;16625;53.624;10.106;2022-09-17T06:35:55;27.17;;;4.27;;
4921;SDS011;16625;53.624;10.106;2022-09-17T06:38:24;11.43;;;2.77;;
4921;SDS011;16625;53.624;10.106;2022-09-17T06:40:51;10.03;;;3.07;;
4921;SDS011;16625;53.624;10.106;2022-09-17T06:43:17;20.03;;;3.30;;
4921;SDS011;16625;53.624;10.106;2022-09-17T06:45:51;12.53;;;3.40;;
4921;SDS011;16625;53.624;10.106;2022-09-17T06:48:18;11.13;;;3.47;;
4921;SDS011;16625;53.624;10.106;2022-09-17T06:50:44;21.40;;;3.60;;
4921;SDS011;16625;53.624;10.106;2022-09-17T06:53:11;12.00;;;3.40;;
4921;SDS011;16625;53.624;10.106;2022-09-17T06:55:38;12.87;;;2.40;;
4921;SDS011;16625;53.624;10.106;2022-09-17T06:58:05;12.77;;;2.70;;
4921;SDS011;16625;53.624;10.106;2022-09-17T07:00:31;10.70;;;2.43;;
4921;SDS011;16625;53.624;10.106;2022-09-17T07:03:01;16.20;;;3.97;;
4921;SDS011;16625;53.624;10.106;2022-09-17T07:05:28;11.00;;;2.73;;
4921;SDS011;16625;53.624;10.106;2022-09-17T07:07:59;19.70;;;2.67;;
4921;SDS011;16625;53.624;10.106;2022-09-17T07:10:27;15.67;;;3.10;;
4921;SDS011;16625;53.624;10.106;2022-09-17T07:12:54;7.43;;;2.47;;
4921;SDS011;16625;53.624;10.106;2022-09-17T07:15:21;17.47;;;2.23;;
4921;SDS011;16625;53.624;10.106;2022-09-17T07:17:48;6.33;;;2.73;;
4921;SDS011;16625;53.624;10.106;2022-09-17T07:20:16;7.47;;;2.47;;
4921;SDS011;16625;53.624;10.106;2022-09-17T07:22:43;7.17;;;2.27;;
4921;SDS011;16625;53.624;10.106;2022-09-17T07:25:10;7.60;;;1.80;;
4921;SDS011;16625;53.624;10.106;2022-09-17T07:27:37;10.20;;;2.60;;
4921;SDS011;16625;53.624;10.106;2022-09-17T07:30:04;6.30;;;2.30;;
4921;SDS011;16625;53.624;10.106;2022-09-17T07:32:32;6.03;;;2.57;;
4921;SDS011;16625;53.624;10.106;2022-09-17T07:34:59;5.60;;;1.90;;
4921;SDS011;16625;53.624;10.106;2022-09-17T07:37:27;3.60;;;1.70;;
4921;SDS011;16625;53.624;10.106;2022-09-17T07:39:54;5.60;;;1.90;;
4921;SDS011;16625;53.624;10.106;2022-09-17T07:42:21;3.93;;;2.27;;
4921;SDS011;16625;53.624;10.106;2022-09-17T07:44:47;6.30;;;1.70;;
4921;SDS011;16625;53.624;10.106;2022-09-17T07:47:14;5.13;;;1.70;;
4921;SDS011;16625;53.624;10.106;2022-09-17T07:49:41;3.77;;;1.60;;
4921;SDS011;16625;53.624;10.106;2022-09-17T07:52:08;5.50;;;2.00;;
4921;SDS011;16625;53.624;10.106;2022-09-17T07:54:36;2.73;;;1.70;;
4921;SDS011;16625;53.624;10.106;2022-09-17T07:57:03;2.93;;;1.63;;
4921;SDS011;16625;53.624;10.106;2022-09-17T07:59:30;5.00;;;2.07;;
4921;SDS011;16625;53.624;10.106;2022-09-17T08:01:57;5.80;;;1.90;;
4921;SDS011;16625;53.624;10.106;2022-09-17T08:04:24;3.00;;;1.93;;
4921;SDS011;16625;53.624;10.106;2022-09-17T08:06:51;4.43;;;2.13;;
4921;SDS011;16625;53.624;10.106;2022-09-17T08:09:18;10.60;;;2.17;;
4921;SDS011;16625;53.624;10.106;2022-09-17T08:11:47;9.63;;;2.23;;
4921;SDS011;16625;53.624;10.106;2022-09-17T08:14:15;5.83;;;2.20;;
4921;SDS011;16625;53.624;10.106;2022-09-17T08:16:41;4.90;;;2.00;;
4921;SDS011;16625;53.624;10.106;2022-09-17T08:19:09;5.53;;;2.03;;
4921;SDS011;16625;53.624;10.106;2022-09-17T08:21:36;3.80;;;1.87;;
4921;SDS011;16625;53.624;10.106;2022-09-17T08:24:03;10.27;;;2.30;;
4921;SDS011;16625;53.624;10.106;2022-09-17T08:26:33;10.00;;;2.33;;
4921;SDS011;16625;53.624;10.106;2022-09-17T08:29:01;6.47;;;2.77;;
4921;SDS011;16625;53.624;10.106;2022-09-17T08:31:28;7.90;;;1.93;;
4921;SDS011;16625;53.624;10.106;2022-09-17T08:33:57;3.70;;;2.00;;
4921;SDS011;16625;53.624;10.106;2022-09-17T08:36:24;7.83;;;2.20;;
4921;SDS011;16625;53.624;10.106;2022-09-17T08:38:51;9.60;;;2.53;;
4921;SDS011;16625;53.624;10.106;2022-09-17T08:41:20;13.63;;;2.00;;
4921;SDS011;16625;53.624;10.106;2022-09-17T08:44:01;7.13;;;1.80;;
4921;SDS011;16625;53.624;10.106;2022-09-17T08:46:39;5.30;;;1.50;;
4921;SDS011;16625;53.624;10.106;2022-09-17T08:49:12;8.80;;;2.00;;
4921;SDS011;16625;53.624;10.106;2022-09-17T08:51:51;8.57;;;2.13;;
4921;SDS011;16625;53.624;10.106;2022-09-17T08:54:31;4.53;;;1.90;;
4921;SDS011;16625;53.624;10.106;2022-09-17T08:57:05;7.53;;;2.43;;
4921;SDS011;16625;53.624;10.106;2022-09-17T08:59:47;12.00;;;2.07;;
4921;SDS011;16625;53.624;10.106;2022-09-17T09:02:23;5.77;;;2.37;;
4921;SDS011;16625;53.624;10.106;2022-09-17T09:05:03;5.93;;;2.13;;
4921;SDS011;16625;53.624;10.106;2022-09-17T09:07:37;5.07;;;2.17;;
4921;SDS011;16625;53.624;10.106;2022-09-17T09:10:13;8.53;;;2.20;;
4921;SDS011;16625;53.624;10.106;2022-09-17T09:12:47;4.43;;;1.70;;
4921;SDS011;16625;53.624;10.106;2022-09-17T09:15:22;8.63;;;1.73;;
4921;SDS011;16625;53.624;10.106;2022-09-17T09:18:00;16.77;;;2.13;;
4921;SDS011;16625;53.624;10.106;2022-09-17T09:20:39;9.07;;;2.03;;
4921;SDS011;16625;53.624;10.106;2022-09-17T09:23:14;6.13;;;1.70;;
4921;SDS011;16625;53.624;10.106;2022-09-17T09:25:49;3.77;;;1.70;;
4921;SDS011;16625;53.624;10.106;2022-09-17T09:28:26;4.73;;;1.40;;
4921;SDS011;16625;53.624;10.106;2022-09-17T09:31:14;6.30;;;2.20;;
4921;SDS011;16625;53.624;10.106;2022-09-17T09:33:49;5.97;;;1.47;;
4921;SDS011;16625;53.624;10.106;2022-09-17T09:36:17;1.50;;;1.30;;
4921;SDS011;16625;53.624;10.106;2022-09-17T09:38:47;2.10;;;1.37;;
4921;SDS011;16625;53.624;10.106;2022-09-17T09:41:19;7.80;;;1.60;;
4921;SDS011;16625;53.624;10.106;2022-09-17T09:43:55;1.40;;;1.23;;
4921;SDS011;16625;53.624;10.106;2022-09-17T09:46:33;1.80;;;1.30;;
4921;SDS011;16625;53.624;10.106;2022-09-17T09:49:12;2.80;;;1.40;;
4921;SDS011;16625;53.624;10.106;2022-09-17T09:51:49;1.93;;;1.23;;
4921;SDS011;16625;53.624;10.106;2022-09-17T09:54:30;6.90;;;1.90;;
4921;SDS011;16625;53.624;10.106;2022-09-17T09:57:07;3.77;;;1.47;;
4921;SDS011;16625;53.624;10.106;2022-09-17T09:59:38;11.53;;;1.63;;
4921;SDS011;16625;53.624;10.106;2022-09-17T10:02:07;10.40;;;3.30;;
4921;SDS011;16625;53.624;10.106;2022-09-17T10:04:34;9.33;;;1.80;;
4921;SDS011;16625;53.624;10.106;2022-09-17T10:07:02;2.00;;;1.20;;
4921;SDS011;16625;53.624;10.106;2022-09-17T10:09:31;2.13;;;1.67;;
4921;SDS011;16625;53.624;10.106;2022-09-17T10:12:00;6.80;;;1.50;;
4921;SDS011;16625;53.624;10.106;2022-09-17T10:14:28;3.97;;;1.43;;
4921;SDS011;16625;53.624;10.106;2022-09-17T10:17:10;1.40;;;1.10;;
4921;SDS011;16625;53.624;10.106;2022-09-17T10:19:41;6.93;;;2.07;;
4921;SDS011;16625;53.624;10.106;2022-09-17T10:22:18;2.37;;;1.30;;
4921;SDS011;16625;53.624;10.106;2022-09-17T10:24:50;6.40;;;1.77;;
4921;SDS011;16625;53.624;10.106;2022-09-17T10:27:18;2.27;;;1.47;;
4921;SDS011;16625;53.624;10.106;2022-09-17T10:29:48;5.20;;;2.10;;
4921;SDS011;16625;53.624;10.106;2022-09-17T10:32:19;4.53;;;1.70;;
4921;SDS011;16625;53.624;10.106;2022-09-17T10:34:57;2.57;;;1.60;;
4921;SDS011;16625;53.624;10.106;2022-09-17T10:37:32;5.03;;;1.90;;
4921;SDS011;16625;53.624;10.106;2022-09-17T10:40:23;3.60;;;1.60;;
4921;SDS011;16625;53.624;10.106;2022-09-17T10:45:45;3.50;;;1.70;;
4921;SDS011;16625;53.624;10.106;2022-09-17T10:48:23;5.70;;;2.50;;
4921;SDS011;16625;53.624;10.106;2022-09-17T10:50:54;7.30;;;2.10;;
4921;SDS011;16625;53.624;10.106;2022-09-17T10:53:23;6.60;;;2.07;;
4921;SDS011;16625;53.624;10.106;2022-09-17T10:55:52;3.60;;;1.70;;
4921;SDS011;16625;53.624;10.106;2022-09-17T10:58:31;6.97;;;1.70;;
4921;SDS011;16625;53.624;10.106;2022-09-17T11:01:10;8.43;;;2.00;;
4921;SDS011;16625;53.624;10.106;2022-09-17T11:03:50;3.23;;;1.43;;
4921;SDS011;16625;53.624;10.106;2022-09-17T11:06:44;5.47;;;2.33;;
4921;SDS011;16625;53.624;10.106;2022-09-17T11:09:24;4.97;;;1.90;;
4921;SDS011;16625;53.624;10.106;2022-09-17T11:12:05;4.27;;;2.63;;
4921;SDS011;16625;53.624;10.106;2022-09-17T11:14:48;4.20;;;1.83;;
4921;SDS011;16625;53.624;10.106;2022-09-17T11:17:24;5.17;;;1.90;;
4921;SDS011;16625;53.624;10.106;2022-09-17T11:20:16;1.93;;;1.23;;
4921;SDS011;16625;53.624;10.106;2022-09-17T11:22:51;7.87;;;1.70;;
4921;SDS011;16625;53.624;10.106;2022-09-17T11:25:33;4.97;;;1.53;;
4921;SDS011;16625;53.624;10.106;2022-09-17T11:28:11;3.93;;;1.60;;
4921;SDS011;16625;53.624;10.106;2022-09-17T11:30:48;9.50;;;1.67;;
4921;SDS011;16625;53.624;10.106;2022-09-17T11:33:32;6.20;;;2.13;;
4921;SDS011;16625;53.624;10.106;2022-09-17T11:36:14;2.70;;;1.70;;
4921;SDS011;16625;53.624;10.106;2022-09-17T11:38:46;7.43;;;1.53;;
4921;SDS011;16625;53.624;10.106;2022-09-17T11:41:15;6.00;;;1.90;;
4921;SDS011;16625;53.624;10.106;2022-09-17T11:43:48;3.90;;;1.60;;
4921;SDS011;16625;53.624;10.106;2022-09-17T11:46:28;4.03;;;2.10;;
4921;SDS011;16625;53.624;10.106;2022-09-17T11:49:01;4.13;;;1.73;;
4921;SDS011;16625;53.624;10.106;2022-09-17T11:51:33;6.43;;;1.93;;
4921;SDS011;16625;53.624;10.106;2022-09-17T11:54:06;2.77;;;1.77;;
4921;SDS011;16625;53.624;10.106;2022-09-17T11:56:42;4.37;;;1.70;;
4921;SDS011;16625;53.624;10.106;2022-09-17T11:59:12;5.43;;;2.20;;
4921;SDS011;16625;53.624;10.106;2022-09-17T12:01:47;8.50;;;2.90;;
4921;SDS011;16625;53.624;10.106;2022-09-17T12:04:30;6.47;;;1.80;;
4921;SDS011;16625;53.624;10.106;2022-09-17T12:07:09;4.03;;;1.70;;
4921;SDS011;16625;53.624;10.106;2022-09-17T12:09:50;4.60;;;1.97;;
4921;SDS011;16625;53.624;10.106;2022-09-17T12:12:23;5.63;;;1.67;;
4921;SDS011;16625;53.624;10.106;2022-09-17T12:14:52;5.10;;;1.93;;
4921;SDS011;16625;53.624;10.106;2022-09-17T12:17:23;8.40;;;1.80;;
4921;SDS011;16625;53.624;10.106;2022-09-17T12:19:53;9.07;;;1.90;;
4921;SDS011;16625;53.624;10.106;2022-09-17T12:22:25;9.90;;;2.53;;
4921;SDS011;16625;53.624;10.106;2022-09-17T12:24:56;6.23;;;2.80;;
4921;SDS011;16625;53.624;10.106;2022-09-17T12:27:27;6.87;;;2.40;;
4921;SDS011;16625;53.624;10.106;2022-09-17T12:30:06;7.77;;;2.67;;
4921;SDS011;16625;53.624;10.106;2022-09-17T12:35:45;8.00;;;2.93;;
4921;SDS011;16625;53.624;10.106;2022-09-17T12:38:30;2.77;;;1.80;;
4921;SDS011;16625;53.624;10.106;2022-09-17T12:41:16;8.00;;;2.33;;
4921;SDS011;16625;53.624;10.106;2022-09-17T12:43:52;10.10;;;3.77;;
4921;SDS011;16625;53.624;10.106;2022-09-17T12:46:36;4.57;;;1.53;;
4921;SDS011;16625;53.624;10.106;2022-09-17T12:49:26;7.50;;;2.40;;
4921;SDS011;16625;53.624;10.106;2022-09-17T12:52:02;9.50;;;2.57;;
4921;SDS011;16625;53.624;10.106;2022-09-17T12:54:47;4.63;;;2.00;;
4921;SDS011;16625;53.624;10.106;2022-09-17T12:57:31;3.30;;;2.00;;
4921;SDS011;16625;53.624;10.106;2022-09-17T13:00:08;6.37;;;2.53;;
4921;SDS011;16625;53.624;10.106;2022-09-17T13:02:38;8.03;;;2.43;;
4921;SDS011;16625;53.624;10.106;2022-09-17T13:05:16;13.50;;;2.87;;
4921;SDS011;16625;53.624;10.106;2022-09-17T13:08:11;5.20;;;2.17;;
4921;SDS011;16625;53.624;10.106;2022-09-17T13:11:15;4.63;;;2.07;;
4921;SDS011;16625;53.624;10.106;2022-09-17T13:14:16;9.20;;;2.73;;
4921;SDS011;16625;53.624;10.106;2022-09-17T13:16:50;8.07;;;2.83;;
4921;SDS011;16625;53.624;10.106;2022-09-17T13:19:24;8.03;;;2.20;;
4921;SDS011;16625;53.624;10.106;2022-09-17T13:21:59;5.30;;;1.90;;
4921;SDS011;16625;53.624;10.106;2022-09-17T13:24:31;7.50;;;1.77;;
4921;SDS011;16625;53.624;10.106;2022-09-17T13:27:01;8.20;;;2.10;;
4921;SDS011;16625;53.624;10.106;2022-09-17T13:32:43;5.93;;;2.00;;
4921;SDS011;16625;53.624;10.106;2022-09-17T13:38:16;8.60;;;2.57;;
4921;SDS011;16625;53.624;10.106;2022-09-17T13:40:44;7.03;;;2.30;;
4921;SDS011;16625;53.624;10.106;2022-09-17T13:43:13;7.50;;;2.40;;
4921;SDS011;16625;53.624;10.106;2022-09-17T13:48:44;7.80;;;2.63;;
4921;SDS011;16625;53.624;10.106;2022-09-17T13:54:08;8.50;;;1.93;;
4921;SDS011;16625;53.624;10.106;2022-09-17T13:56:38;5.00;;;1.70;;
4921;SDS011;16625;53.624;10.106;2022-09-17T13:59:09;4.80;;;1.40;;
4921;SDS011;16625;53.624;10.106;2022-09-17T14:04:52;4.77;;;1.70;;
4921;SDS011;16625;53.624;10.106;2022-09-17T14:07:32;2.30;;;1.43;;
4921;SDS011;16625;53.624;10.106;2022-09-17T14:10:01;4.50;;;2.13;;
4921;SDS011;16625;53.624;10.106;2022-09-17T14:15:55;3.87;;;2.13;;
4921;SDS011;16625;53.624;10.106;2022-09-17T14:18:31;13.63;;;1.90;;
4921;SDS011;16625;53.624;10.106;2022-09-17T14:21:15;5.07;;;2.07;;
4921;SDS011;16625;53.624;10.106;2022-09-17T14:23:55;3.33;;;2.00;;
4921;SDS011;16625;53.624;10.106;2022-09-17T14:29:37;6.40;;;2.10;;
4921;SDS011;16625;53.624;10.106;2022-09-17T14:32:18;5.33;;;1.83;;
4921;SDS011;16625;53.624;10.106;2022-09-17T14:34:54;7.53;;;2.03;;
4921;SDS011;16625;53.624;10.106;2022-09-17T14:37:21;4.10;;;2.17;;
4921;SDS011;16625;53.624;10.106;2022-09-17T14:39:49;4.73;;;2.20;;
4921;SDS011;16625;53.624;10.106;2022-09-17T14:42:18;2.37;;;1.77;;
4921;SDS011;16625;53.624;10.106;2022-09-17T14:44:50;6.10;;;1.80;;
4921;SDS011;16625;53.624;10.106;2022-09-17T14:47:24;9.33;;;2.10;;
4921;SDS011;16625;53.624;10.106;2022-09-17T14:49:52;4.67;;;2.00;;
4921;SDS011;16625;53.624;10.106;2022-09-17T14:52:22;4.33;;;2.13;;
4921;SDS011;16625;53.624;10.106;2022-09-17T14:55:10;4.60;;;2.63;;
4921;SDS011;16625;53.624;10.106;2022-09-17T14:57:42;3.07;;;2.00;;
4921;SDS011;16625;53.624;10.106;2022-09-17T15:00:15;3.47;;;1.90;;
4921;SDS011;16625;53.624;10.106;2022-09-17T15:02:48;3.77;;;1.73;;
4921;SDS011;16625;53.624;10.106;2022-09-17T15:05:24;4.67;;;2.10;;
4921;SDS011;16625;53.624;10.106;2022-09-17T15:08:10;3.60;;;1.60;;
4921;SDS011;16625;53.624;10.106;2022-09-17T15:10:44;3.93;;;2.27;;
4921;SDS011;16625;53.624;10.106;2022-09-17T15:13:16;8.00;;;1.97;;
4921;SDS011;16625;53.624;10.106;2022-09-17T15:15:53;1.70;;;1.60;;
4921;SDS011;16625;53.624;10.106;2022-09-17T15:18:25;1.97;;;1.60;;
4921;SDS011;16625;53.624;10.106;2022-09-17T15:21:01;3.10;;;1.87;;
4921;SDS011;16625;53.624;10.106;2022-09-17T15:23:32;7.53;;;1.90;;
4921;SDS011;16625;53.624;10.106;2022-09-17T15:26:00;9.40;;;2.20;;
4921;SDS011;16625;53.624;10.106;2022-09-17T15:28:30;2.80;;;1.87;;
4921;SDS011;16625;53.624;10.106;2022-09-17T15:31:02;4.50;;;1.77;;
4921;SDS011;16625;53.624;10.106;2022-09-17T15:33:32;8.27;;;2.37;;
4921;SDS011;16625;53.624;10.106;2022-09-17T15:36:00;5.03;;;1.90;;
4921;SDS011;16625;53.624;10.106;2022-09-17T15:38:45;9.27;;;2.03;;
4921;SDS011;16625;53.624;10.106;2022-09-17T15:41:19;3.90;;;2.70;;